sensor_id;sensor_type;location;lat;lon;timestamp;P1;durP1;ratioP1;P2;durP2;ratioP2
38089;SDS011;23904;52.322;10.232;2023-01-19T00:00:06;19.38;;;9.15;;
38089;SDS011;23904;52.322;10.232;2023-01-19T00:02:34;15.88;;;8.13;;
38089;SDS011;23904;52.322;10.232;2023-01-19T00:05:01;18.27;;;8.65;;
38089;SDS011;23904;52.322;10.232;2023-01-19T00:07:28;17.10;;;8.50;;
38089;SDS011;23904;52.322;10.232;2023-01-19T00:09:54;16.25;;;8.30;;
38089;SDS011;23904;52.322;10.232;2023-01-19T00:12:20;15.35;;;7.32;;
38089;SDS011;23904;52.322;10.232;2023-01-19T00:14:46;16.85;;;8.15;;
38089;SDS011;23904;52.322;10.232;2023-01-19T00:17:11;16.15;;;10.05;;
38089;SDS011;23904;52.322;10.232;2023-01-19T00:19:37;17.98;;;8.77;;
38089;SDS011;23904;52.322;10.232;2023-01-19T00:22:02;16.20;;;7.78;;
38089;SDS011;23904;52.322;10.232;2023-01-19T00:24:29;16.50;;;9.45;;
38089;SDS011;23904;52.322;10.232;2023-01-19T00:26:56;17.45;;;8.00;;
38089;SDS011;23904;52.322;10.232;2023-01-19T00:29:22;14.32;;;7.68;;
38089;SDS011;23904;52.322;10.232;2023-01-19T00:31:48;19.77;;;8.95;;
38089;SDS011;23904;52.322;10.232;2023-01-19T00:34:14;16.80;;;8.18;;
38089;SDS011;23904;52.322;10.232;2023-01-19T00:36:40;15.52;;;8.68;;
38089;SDS011;23904;52.322;10.232;2023-01-19T00:39:06;16.23;;;8.38;;
38089;SDS011;23904;52.322;10.232;2023-01-19T00:41:32;16.75;;;8.60;;
38089;SDS011;23904;52.322;10.232;2023-01-19T00:44:16;22.92;;;9.70;;
38089;SDS011;23904;52.322;10.232;2023-01-19T00:46:41;16.85;;;7.82;;
38089;SDS011;23904;52.322;10.232;2023-01-19T00:49:07;17.88;;;8.38;;
38089;SDS011;23904;52.322;10.232;2023-01-19T00:51:33;16.60;;;7.85;;
38089;SDS011;23904;52.322;10.232;2023-01-19T00:53:59;18.50;;;8.25;;
38089;SDS011;23904;52.322;10.232;2023-01-19T00:56:30;16.42;;;8.30;;
38089;SDS011;23904;52.322;10.232;2023-01-19T00:58:56;19.77;;;9.07;;
38089;SDS011;23904;52.322;10.232;2023-01-19T01:01:21;16.73;;;8.32;;
38089;SDS011;23904;52.322;10.232;2023-01-19T01:03:47;14.43;;;8.13;;
38089;SDS011;23904;52.322;10.232;2023-01-19T01:06:12;18.08;;;7.78;;
38089;SDS011;23904;52.322;10.232;2023-01-19T01:08:38;17.80;;;9.15;;
38089;SDS011;23904;52.322;10.232;2023-01-19T01:11:04;20.70;;;7.47;;
38089;SDS011;23904;52.322;10.232;2023-01-19T01:13:30;19.63;;;8.40;;
38089;SDS011;23904;52.322;10.232;2023-01-19T01:15:55;15.85;;;7.60;;
38089;SDS011;23904;52.322;10.232;2023-01-19T01:18:21;16.98;;;8.02;;
38089;SDS011;23904;52.322;10.232;2023-01-19T01:20:47;19.10;;;8.20;;
38089;SDS011;23904;52.322;10.232;2023-01-19T01:23:13;17.92;;;8.15;;
38089;SDS011;23904;52.322;10.232;2023-01-19T01:25:39;16.60;;;8.60;;
38089;SDS011;23904;52.322;10.232;2023-01-19T01:28:05;21.50;;;8.57;;
38089;SDS011;23904;52.322;10.232;2023-01-19T01:30:32;25.30;;;8.40;;
38089;SDS011;23904;52.322;10.232;2023-01-19T01:32:59;15.95;;;8.27;;
38089;SDS011;23904;52.322;10.232;2023-01-19T01:35:25;17.08;;;8.40;;
38089;SDS011;23904;52.322;10.232;2023-01-19T01:37:51;18.48;;;8.60;;
38089;SDS011;23904;52.322;10.232;2023-01-19T01:40:17;21.77;;;8.02;;
38089;SDS011;23904;52.322;10.232;2023-01-19T01:42:43;16.65;;;8.55;;
38089;SDS011;23904;52.322;10.232;2023-01-19T01:50:50;17.42;;;8.20;;
38089;SDS011;23904;52.322;10.232;2023-01-19T01:53:44;15.70;;;7.97;;
38089;SDS011;23904;52.322;10.232;2023-01-19T01:56:14;19.50;;;8.38;;
38089;SDS011;23904;52.322;10.232;2023-01-19T01:58:44;20.88;;;8.82;;
38089;SDS011;23904;52.322;10.232;2023-01-19T02:01:10;17.30;;;8.60;;
38089;SDS011;23904;52.322;10.232;2023-01-19T02:03:55;16.88;;;8.77;;
38089;SDS011;23904;52.322;10.232;2023-01-19T02:06:22;16.17;;;7.50;;
38089;SDS011;23904;52.322;10.232;2023-01-19T02:11:40;15.43;;;8.13;;
38089;SDS011;23904;52.322;10.232;2023-01-19T02:14:24;14.15;;;7.40;;
38089;SDS011;23904;52.322;10.232;2023-01-19T02:16:50;19.38;;;8.07;;
38089;SDS011;23904;52.322;10.232;2023-01-19T02:19:16;16.80;;;8.02;;
38089;SDS011;23904;52.322;10.232;2023-01-19T02:24:35;16.40;;;7.13;;
38089;SDS011;23904;52.322;10.232;2023-01-19T02:27:01;15.30;;;8.52;;
38089;SDS011;23904;52.322;10.232;2023-01-19T02:29:28;13.35;;;8.05;;
38089;SDS011;23904;52.322;10.232;2023-01-19T02:31:54;15.73;;;8.27;;
38089;SDS011;23904;52.322;10.232;2023-01-19T02:34:21;15.77;;;7.63;;
38089;SDS011;23904;52.322;10.232;2023-01-19T02:36:51;16.45;;;7.63;;
38089;SDS011;23904;52.322;10.232;2023-01-19T02:39:26;18.83;;;8.20;;
38089;SDS011;23904;52.322;10.232;2023-01-19T02:42:05;16.33;;;8.20;;
38089;SDS011;23904;52.322;10.232;2023-01-19T02:44:38;15.27;;;7.93;;
38089;SDS011;23904;52.322;10.232;2023-01-19T02:47:04;18.70;;;8.07;;
38089;SDS011;23904;52.322;10.232;2023-01-19T02:49:30;18.35;;;8.40;;
38089;SDS011;23904;52.322;10.232;2023-01-19T02:51:56;19.45;;;8.02;;
38089;SDS011;23904;52.322;10.232;2023-01-19T02:59:57;18.83;;;8.52;;
38089;SDS011;23904;52.322;10.232;2023-01-19T03:02:56;20.65;;;7.82;;
38089;SDS011;23904;52.322;10.232;2023-01-19T03:05:52;18.02;;;8.73;;
38089;SDS011;23904;52.322;10.232;2023-01-19T03:11:21;22.45;;;7.68;;
38089;SDS011;23904;52.322;10.232;2023-01-19T03:13:59;13.50;;;7.05;;
38089;SDS011;23904;52.322;10.232;2023-01-19T03:19:22;16.70;;;7.65;;
38089;SDS011;23904;52.322;10.232;2023-01-19T03:22:11;13.95;;;6.43;;
38089;SDS011;23904;52.322;10.232;2023-01-19T03:24:46;16.20;;;7.82;;
38089;SDS011;23904;52.322;10.232;2023-01-19T03:27:17;19.70;;;8.38;;
38089;SDS011;23904;52.322;10.232;2023-01-19T03:29:54;19.88;;;7.53;;
38089;SDS011;23904;52.322;10.232;2023-01-19T03:32:31;13.57;;;7.55;;
38089;SDS011;23904;52.322;10.232;2023-01-19T03:35:04;13.35;;;6.70;;
38089;SDS011;23904;52.322;10.232;2023-01-19T03:37:38;14.85;;;8.18;;
38089;SDS011;23904;52.322;10.232;2023-01-19T03:40:07;16.23;;;8.27;;
38089;SDS011;23904;52.322;10.232;2023-01-19T03:42:35;17.80;;;8.55;;
38089;SDS011;23904;52.322;10.232;2023-01-19T03:45:03;11.63;;;6.93;;
38089;SDS011;23904;52.322;10.232;2023-01-19T03:47:30;11.65;;;7.05;;
38089;SDS011;23904;52.322;10.232;2023-01-19T03:49:55;20.05;;;8.63;;
38089;SDS011;23904;52.322;10.232;2023-01-19T03:52:29;13.95;;;8.50;;
38089;SDS011;23904;52.322;10.232;2023-01-19T03:55:02;15.07;;;7.78;;
38089;SDS011;23904;52.322;10.232;2023-01-19T03:57:29;12.80;;;8.05;;
38089;SDS011;23904;52.322;10.232;2023-01-19T03:59:56;19.33;;;7.88;;
38089;SDS011;23904;52.322;10.232;2023-01-19T04:02:22;13.82;;;7.97;;
38089;SDS011;23904;52.322;10.232;2023-01-19T04:04:48;17.65;;;9.02;;
38089;SDS011;23904;52.322;10.232;2023-01-19T04:07:14;16.58;;;7.78;;
38089;SDS011;23904;52.322;10.232;2023-01-19T04:09:39;16.80;;;8.23;;
38089;SDS011;23904;52.322;10.232;2023-01-19T04:12:05;15.15;;;8.32;;
38089;SDS011;23904;52.322;10.232;2023-01-19T04:14:31;18.65;;;8.68;;
38089;SDS011;23904;52.322;10.232;2023-01-19T04:16:56;18.17;;;7.82;;
38089;SDS011;23904;52.322;10.232;2023-01-19T04:19:22;15.80;;;8.35;;
38089;SDS011;23904;52.322;10.232;2023-01-19T04:21:48;21.75;;;8.70;;
38089;SDS011;23904;52.322;10.232;2023-01-19T04:24:14;15.48;;;7.97;;
38089;SDS011;23904;52.322;10.232;2023-01-19T04:26:41;16.83;;;7.82;;
38089;SDS011;23904;52.322;10.232;2023-01-19T04:29:07;16.73;;;7.88;;
38089;SDS011;23904;52.322;10.232;2023-01-19T04:31:32;16.48;;;8.40;;
38089;SDS011;23904;52.322;10.232;2023-01-19T04:33:59;16.98;;;8.18;;
38089;SDS011;23904;52.322;10.232;2023-01-19T04:36:26;15.95;;;7.22;;
38089;SDS011;23904;52.322;10.232;2023-01-19T04:38:52;15.18;;;7.30;;
38089;SDS011;23904;52.322;10.232;2023-01-19T04:41:18;19.45;;;6.90;;
38089;SDS011;23904;52.322;10.232;2023-01-19T04:43:44;14.50;;;7.93;;
38089;SDS011;23904;52.322;10.232;2023-01-19T04:46:11;13.43;;;7.78;;
38089;SDS011;23904;52.322;10.232;2023-01-19T04:48:38;13.48;;;6.72;;
38089;SDS011;23904;52.322;10.232;2023-01-19T04:51:03;14.77;;;8.65;;
38089;SDS011;23904;52.322;10.232;2023-01-19T04:53:29;13.90;;;7.22;;
38089;SDS011;23904;52.322;10.232;2023-01-19T04:55:54;12.15;;;7.05;;
38089;SDS011;23904;52.322;10.232;2023-01-19T04:58:20;15.10;;;7.43;;
38089;SDS011;23904;52.322;10.232;2023-01-19T05:00:46;15.90;;;7.90;;
38089;SDS011;23904;52.322;10.232;2023-01-19T05:03:12;16.27;;;7.78;;
38089;SDS011;23904;52.322;10.232;2023-01-19T05:05:37;16.33;;;7.32;;
38089;SDS011;23904;52.322;10.232;2023-01-19T05:08:03;16.38;;;8.38;;
38089;SDS011;23904;52.322;10.232;2023-01-19T05:10:29;14.40;;;7.28;;
38089;SDS011;23904;52.322;10.232;2023-01-19T05:12:54;12.15;;;7.22;;
38089;SDS011;23904;52.322;10.232;2023-01-19T05:15:20;14.90;;;7.97;;
38089;SDS011;23904;52.322;10.232;2023-01-19T05:17:46;16.90;;;8.20;;
38089;SDS011;23904;52.322;10.232;2023-01-19T05:20:12;13.63;;;7.05;;
38089;SDS011;23904;52.322;10.232;2023-01-19T05:22:38;23.80;;;8.50;;
38089;SDS011;23904;52.322;10.232;2023-01-19T05:25:05;15.05;;;7.35;;
38089;SDS011;23904;52.322;10.232;2023-01-19T05:27:35;13.52;;;7.60;;
38089;SDS011;23904;52.322;10.232;2023-01-19T05:30:01;16.85;;;8.25;;
38089;SDS011;23904;52.322;10.232;2023-01-19T05:32:28;19.33;;;8.27;;
38089;SDS011;23904;52.322;10.232;2023-01-19T05:34:54;13.52;;;6.53;;
38089;SDS011;23904;52.322;10.232;2023-01-19T05:37:19;13.77;;;7.65;;
38089;SDS011;23904;52.322;10.232;2023-01-19T05:39:45;14.00;;;7.72;;
38089;SDS011;23904;52.322;10.232;2023-01-19T05:42:10;14.80;;;7.57;;
38089;SDS011;23904;52.322;10.232;2023-01-19T05:44:36;17.08;;;8.02;;
38089;SDS011;23904;52.322;10.232;2023-01-19T05:47:01;16.95;;;7.50;;
38089;SDS011;23904;52.322;10.232;2023-01-19T05:49:27;11.75;;;7.13;;
38089;SDS011;23904;52.322;10.232;2023-01-19T05:51:53;12.52;;;7.15;;
38089;SDS011;23904;52.322;10.232;2023-01-19T05:54:18;12.70;;;6.95;;
38089;SDS011;23904;52.322;10.232;2023-01-19T05:56:44;16.40;;;7.05;;
38089;SDS011;23904;52.322;10.232;2023-01-19T05:59:09;14.95;;;7.55;;
38089;SDS011;23904;52.322;10.232;2023-01-19T06:01:35;14.02;;;7.43;;
38089;SDS011;23904;52.322;10.232;2023-01-19T06:04:02;10.32;;;6.47;;
38089;SDS011;23904;52.322;10.232;2023-01-19T06:06:28;11.20;;;6.90;;
38089;SDS011;23904;52.322;10.232;2023-01-19T06:08:54;17.30;;;7.25;;
38089;SDS011;23904;52.322;10.232;2023-01-19T06:11:20;14.70;;;6.93;;
38089;SDS011;23904;52.322;10.232;2023-01-19T06:13:46;12.75;;;6.57;;
38089;SDS011;23904;52.322;10.232;2023-01-19T06:16:11;14.23;;;7.60;;
38089;SDS011;23904;52.322;10.232;2023-01-19T06:18:38;18.38;;;7.93;;
38089;SDS011;23904;52.322;10.232;2023-01-19T06:21:04;14.65;;;7.45;;
38089;SDS011;23904;52.322;10.232;2023-01-19T06:23:32;18.52;;;7.05;;
38089;SDS011;23904;52.322;10.232;2023-01-19T06:25:59;14.95;;;6.93;;
38089;SDS011;23904;52.322;10.232;2023-01-19T06:28:25;16.02;;;7.53;;
38089;SDS011;23904;52.322;10.232;2023-01-19T06:30:51;18.55;;;8.35;;
38089;SDS011;23904;52.322;10.232;2023-01-19T06:33:19;15.38;;;7.47;;
38089;SDS011;23904;52.322;10.232;2023-01-19T06:35:45;17.65;;;7.10;;
38089;SDS011;23904;52.322;10.232;2023-01-19T06:38:12;15.52;;;7.47;;
38089;SDS011;23904;52.322;10.232;2023-01-19T06:40:39;17.98;;;7.65;;
38089;SDS011;23904;52.322;10.232;2023-01-19T06:43:05;16.65;;;7.88;;
38089;SDS011;23904;52.322;10.232;2023-01-19T06:45:31;17.45;;;8.23;;
38089;SDS011;23904;52.322;10.232;2023-01-19T06:47:58;15.80;;;7.72;;
38089;SDS011;23904;52.322;10.232;2023-01-19T06:50:23;15.93;;;7.93;;
38089;SDS011;23904;52.322;10.232;2023-01-19T06:52:50;12.88;;;7.70;;
38089;SDS011;23904;52.322;10.232;2023-01-19T06:55:16;13.27;;;8.15;;
38089;SDS011;23904;52.322;10.232;2023-01-19T06:57:42;16.23;;;8.13;;
38089;SDS011;23904;52.322;10.232;2023-01-19T07:00:08;14.00;;;7.72;;
38089;SDS011;23904;52.322;10.232;2023-01-19T07:02:36;12.75;;;6.95;;
38089;SDS011;23904;52.322;10.232;2023-01-19T07:05:09;17.38;;;7.07;;
38089;SDS011;23904;52.322;10.232;2023-01-19T07:07:38;18.10;;;7.80;;
38089;SDS011;23904;52.322;10.232;2023-01-19T07:10:06;16.80;;;8.05;;
38089;SDS011;23904;52.322;10.232;2023-01-19T07:12:35;19.35;;;8.70;;
38089;SDS011;23904;52.322;10.232;2023-01-19T07:15:02;13.82;;;7.70;;
38089;SDS011;23904;52.322;10.232;2023-01-19T07:17:28;19.58;;;8.65;;
38089;SDS011;23904;52.322;10.232;2023-01-19T07:19:53;16.50;;;8.57;;
38089;SDS011;23904;52.322;10.232;2023-01-19T07:22:19;15.75;;;8.35;;
38089;SDS011;23904;52.322;10.232;2023-01-19T07:24:44;15.98;;;8.27;;
38089;SDS011;23904;52.322;10.232;2023-01-19T07:27:10;13.23;;;8.63;;
38089;SDS011;23904;52.322;10.232;2023-01-19T07:29:36;16.40;;;7.35;;
38089;SDS011;23904;52.322;10.232;2023-01-19T07:32:02;14.38;;;8.18;;
38089;SDS011;23904;52.322;10.232;2023-01-19T07:34:28;14.20;;;7.75;;
38089;SDS011;23904;52.322;10.232;2023-01-19T07:36:54;13.90;;;8.15;;
38089;SDS011;23904;52.322;10.232;2023-01-19T07:39:20;19.13;;;7.78;;
38089;SDS011;23904;52.322;10.232;2023-01-19T07:41:48;14.25;;;8.25;;
38089;SDS011;23904;52.322;10.232;2023-01-19T07:44:14;21.55;;;8.13;;
38089;SDS011;23904;52.322;10.232;2023-01-19T07:46:40;15.68;;;7.95;;
38089;SDS011;23904;52.322;10.232;2023-01-19T07:49:05;16.48;;;8.32;;
38089;SDS011;23904;52.322;10.232;2023-01-19T07:51:31;14.50;;;8.13;;
38089;SDS011;23904;52.322;10.232;2023-01-19T07:53:57;16.48;;;9.02;;
38089;SDS011;23904;52.322;10.232;2023-01-19T07:56:22;18.35;;;9.52;;
38089;SDS011;23904;52.322;10.232;2023-01-19T07:58:48;18.02;;;8.20;;
38089;SDS011;23904;52.322;10.232;2023-01-19T08:01:16;15.63;;;8.40;;
38089;SDS011;23904;52.322;10.232;2023-01-19T08:03:42;20.23;;;8.48;;
38089;SDS011;23904;52.322;10.232;2023-01-19T08:06:17;15.25;;;8.68;;
38089;SDS011;23904;52.322;10.232;2023-01-19T08:08:46;16.75;;;8.70;;
38089;SDS011;23904;52.322;10.232;2023-01-19T08:11:12;18.38;;;8.07;;
38089;SDS011;23904;52.322;10.232;2023-01-19T08:13:38;19.30;;;8.52;;
38089;SDS011;23904;52.322;10.232;2023-01-19T08:16:03;15.43;;;8.35;;
38089;SDS011;23904;52.322;10.232;2023-01-19T08:18:29;14.73;;;8.23;;
38089;SDS011;23904;52.322;10.232;2023-01-19T08:20:57;16.75;;;8.90;;
38089;SDS011;23904;52.322;10.232;2023-01-19T08:23:23;21.23;;;8.45;;
38089;SDS011;23904;52.322;10.232;2023-01-19T08:25:51;16.27;;;7.78;;
38089;SDS011;23904;52.322;10.232;2023-01-19T08:28:17;16.23;;;8.63;;
38089;SDS011;23904;52.322;10.232;2023-01-19T08:30:43;15.52;;;8.32;;
38089;SDS011;23904;52.322;10.232;2023-01-19T08:33:09;12.43;;;7.80;;
38089;SDS011;23904;52.322;10.232;2023-01-19T08:35:37;13.57;;;7.80;;
38089;SDS011;23904;52.322;10.232;2023-01-19T08:38:05;13.75;;;8.43;;
38089;SDS011;23904;52.322;10.232;2023-01-19T08:40:33;15.07;;;8.65;;
38089;SDS011;23904;52.322;10.232;2023-01-19T08:43:14;13.10;;;8.38;;
38089;SDS011;23904;52.322;10.232;2023-01-19T08:45:42;19.73;;;9.13;;
38089;SDS011;23904;52.322;10.232;2023-01-19T08:48:12;13.02;;;8.07;;
38089;SDS011;23904;52.322;10.232;2023-01-19T08:50:38;21.38;;;10.18;;
38089;SDS011;23904;52.322;10.232;2023-01-19T08:53:04;17.50;;;8.73;;
38089;SDS011;23904;52.322;10.232;2023-01-19T08:55:31;15.52;;;8.02;;
38089;SDS011;23904;52.322;10.232;2023-01-19T08:57:59;24.25;;;9.70;;
38089;SDS011;23904;52.322;10.232;2023-01-19T09:00:26;15.90;;;8.05;;
38089;SDS011;23904;52.322;10.232;2023-01-19T09:02:52;13.68;;;8.40;;
38089;SDS011;23904;52.322;10.232;2023-01-19T09:05:18;15.27;;;7.55;;
38089;SDS011;23904;52.322;10.232;2023-01-19T09:07:44;12.98;;;7.82;;
38089;SDS011;23904;52.322;10.232;2023-01-19T09:10:14;16.33;;;8.13;;
38089;SDS011;23904;52.322;10.232;2023-01-19T09:12:41;15.05;;;8.52;;
38089;SDS011;23904;52.322;10.232;2023-01-19T09:15:09;13.27;;;7.43;;
38089;SDS011;23904;52.322;10.232;2023-01-19T09:17:36;14.20;;;7.68;;
38089;SDS011;23904;52.322;10.232;2023-01-19T09:20:02;14.40;;;8.20;;
38089;SDS011;23904;52.322;10.232;2023-01-19T09:22:29;19.38;;;7.82;;
38089;SDS011;23904;52.322;10.232;2023-01-19T09:24:56;13.82;;;8.18;;
38089;SDS011;23904;52.322;10.232;2023-01-19T09:27:22;12.02;;;6.55;;
38089;SDS011;23904;52.322;10.232;2023-01-19T09:29:48;13.25;;;7.07;;
38089;SDS011;23904;52.322;10.232;2023-01-19T09:32:16;11.10;;;6.80;;
38089;SDS011;23904;52.322;10.232;2023-01-19T09:34:43;12.88;;;6.68;;
38089;SDS011;23904;52.322;10.232;2023-01-19T09:37:09;12.40;;;6.95;;
38089;SDS011;23904;52.322;10.232;2023-01-19T09:39:35;13.38;;;7.10;;
38089;SDS011;23904;52.322;10.232;2023-01-19T09:45:00;12.75;;;7.30;;
38089;SDS011;23904;52.322;10.232;2023-01-19T09:47:29;12.60;;;6.75;;
38089;SDS011;23904;52.322;10.232;2023-01-19T09:49:57;16.80;;;6.47;;
38089;SDS011;23904;52.322;10.232;2023-01-19T09:52:30;16.60;;;7.65;;
38089;SDS011;23904;52.322;10.232;2023-01-19T09:55:00;13.38;;;7.03;;
38089;SDS011;23904;52.322;10.232;2023-01-19T09:57:26;16.52;;;7.60;;
38089;SDS011;23904;52.322;10.232;2023-01-19T09:59:53;13.75;;;7.35;;
38089;SDS011;23904;52.322;10.232;2023-01-19T10:05:18;12.85;;;6.65;;
38089;SDS011;23904;52.322;10.232;2023-01-19T10:07:57;11.63;;;6.60;;
38089;SDS011;23904;52.322;10.232;2023-01-19T10:10:37;10.15;;;6.28;;
38089;SDS011;23904;52.322;10.232;2023-01-19T10:13:09;12.35;;;6.45;;
38089;SDS011;23904;52.322;10.232;2023-01-19T10:18:56;12.27;;;6.70;;
38089;SDS011;23904;52.322;10.232;2023-01-19T10:21:37;10.07;;;6.25;;
38089;SDS011;23904;52.322;10.232;2023-01-19T10:24:13;11.95;;;6.97;;
38089;SDS011;23904;52.322;10.232;2023-01-19T10:26:58;10.88;;;5.97;;
38089;SDS011;23904;52.322;10.232;2023-01-19T10:29:35;14.00;;;6.18;;
38089;SDS011;23904;52.322;10.232;2023-01-19T10:34:51;11.50;;;6.47;;
38089;SDS011;23904;52.322;10.232;2023-01-19T10:40:14;10.18;;;5.68;;
38089;SDS011;23904;52.322;10.232;2023-01-19T10:45:57;10.73;;;5.93;;
38089;SDS011;23904;52.322;10.232;2023-01-19T10:48:24;10.27;;;5.93;;
38089;SDS011;23904;52.322;10.232;2023-01-19T10:50:59;13.10;;;6.53;;
38089;SDS011;23904;52.322;10.232;2023-01-19T10:53:29;11.90;;;5.78;;
38089;SDS011;23904;52.322;10.232;2023-01-19T10:56:09;9.98;;;6.10;;
38089;SDS011;23904;52.322;10.232;2023-01-19T10:58:39;8.25;;;5.50;;
38089;SDS011;23904;52.322;10.232;2023-01-19T11:01:38;10.05;;;5.40;;
38089;SDS011;23904;52.322;10.232;2023-01-19T11:04:03;8.73;;;5.78;;
38089;SDS011;23904;52.322;10.232;2023-01-19T11:06:46;9.63;;;5.57;;
38089;SDS011;23904;52.322;10.232;2023-01-19T11:09:18;11.75;;;5.38;;
38089;SDS011;23904;52.322;10.232;2023-01-19T11:11:46;11.55;;;5.35;;
38089;SDS011;23904;52.322;10.232;2023-01-19T11:14:17;9.35;;;5.63;;
38089;SDS011;23904;52.322;10.232;2023-01-19T11:16:47;9.95;;;5.88;;
38089;SDS011;23904;52.322;10.232;2023-01-19T11:19:18;10.73;;;6.13;;
38089;SDS011;23904;52.322;10.232;2023-01-19T11:21:49;9.48;;;5.72;;
38089;SDS011;23904;52.322;10.232;2023-01-19T11:24:15;10.13;;;6.25;;
38089;SDS011;23904;52.322;10.232;2023-01-19T11:26:42;8.63;;;5.32;;
38089;SDS011;23904;52.322;10.232;2023-01-19T11:29:24;9.02;;;5.25;;
38089;SDS011;23904;52.322;10.232;2023-01-19T11:31:51;9.27;;;5.35;;
38089;SDS011;23904;52.322;10.232;2023-01-19T11:34:31;8.38;;;4.60;;
38089;SDS011;23904;52.322;10.232;2023-01-19T11:37:00;8.75;;;4.88;;
38089;SDS011;23904;52.322;10.232;2023-01-19T11:39:30;10.73;;;4.88;;
38089;SDS011;23904;52.322;10.232;2023-01-19T11:42:09;7.93;;;4.95;;
38089;SDS011;23904;52.322;10.232;2023-01-19T11:44:47;7.35;;;5.10;;
38089;SDS011;23904;52.322;10.232;2023-01-19T11:47:37;7.28;;;5.10;;
38089;SDS011;23904;52.322;10.232;2023-01-19T11:50:22;9.30;;;5.03;;
38089;SDS011;23904;52.322;10.232;2023-01-19T11:52:58;7.07;;;4.68;;
38089;SDS011;23904;52.322;10.232;2023-01-19T11:55:38;7.50;;;4.80;;
38089;SDS011;23904;52.322;10.232;2023-01-19T11:58:12;9.98;;;5.25;;
38089;SDS011;23904;52.322;10.232;2023-01-19T12:00:44;12.35;;;5.50;;
38089;SDS011;23904;52.322;10.232;2023-01-19T12:06:16;9.48;;;4.47;;
38089;SDS011;23904;52.322;10.232;2023-01-19T12:08:54;8.15;;;3.60;;
38089;SDS011;23904;52.322;10.232;2023-01-19T12:11:26;6.75;;;3.72;;
38089;SDS011;23904;52.322;10.232;2023-01-19T12:13:58;7.03;;;3.20;;
38089;SDS011;23904;52.322;10.232;2023-01-19T12:16:28;6.82;;;3.85;;
38089;SDS011;23904;52.322;10.232;2023-01-19T12:18:59;5.88;;;3.17;;
38089;SDS011;23904;52.322;10.232;2023-01-19T12:21:40;4.05;;;3.08;;
38089;SDS011;23904;52.322;10.232;2023-01-19T12:24:13;5.28;;;3.38;;
38089;SDS011;23904;52.322;10.232;2023-01-19T12:26:52;6.22;;;2.95;;
38089;SDS011;23904;52.322;10.232;2023-01-19T12:29:22;4.75;;;3.38;;
38089;SDS011;23904;52.322;10.232;2023-01-19T12:34:43;5.93;;;4.22;;
38089;SDS011;23904;52.322;10.232;2023-01-19T12:39:52;4.80;;;3.00;;
38089;SDS011;23904;52.322;10.232;2023-01-19T12:42:21;5.53;;;3.20;;
38089;SDS011;23904;52.322;10.232;2023-01-19T12:44:47;5.32;;;2.80;;
38089;SDS011;23904;52.322;10.232;2023-01-19T12:47:31;5.82;;;3.63;;
38089;SDS011;23904;52.322;10.232;2023-01-19T12:49:58;5.82;;;3.30;;
38089;SDS011;23904;52.322;10.232;2023-01-19T12:52:40;9.52;;;3.40;;
38089;SDS011;23904;52.322;10.232;2023-01-19T12:55:22;4.95;;;3.30;;
38089;SDS011;23904;52.322;10.232;2023-01-19T12:58:06;6.32;;;3.85;;
38089;SDS011;23904;52.322;10.232;2023-01-19T13:00:46;4.78;;;3.20;;
38089;SDS011;23904;52.322;10.232;2023-01-19T13:13:30;6.13;;;3.45;;
38089;SDS011;23904;52.322;10.232;2023-01-19T13:18:53;5.65;;;3.63;;
38089;SDS011;23904;52.322;10.232;2023-01-19T13:24:04;8.07;;;4.53;;
38089;SDS011;23904;52.322;10.232;2023-01-19T13:26:36;7.10;;;4.38;;
38089;SDS011;23904;52.322;10.232;2023-01-19T13:29:26;6.50;;;4.03;;
38089;SDS011;23904;52.322;10.232;2023-01-19T13:31:59;7.40;;;4.07;;
38089;SDS011;23904;52.322;10.232;2023-01-19T13:34:50;7.32;;;4.35;;
38089;SDS011;23904;52.322;10.232;2023-01-19T13:37:19;8.02;;;4.80;;
38089;SDS011;23904;52.322;10.232;2023-01-19T13:39:48;8.23;;;4.72;;
38089;SDS011;23904;52.322;10.232;2023-01-19T13:42:27;5.53;;;3.85;;
38089;SDS011;23904;52.322;10.232;2023-01-19T13:45:06;7.60;;;4.03;;
38089;SDS011;23904;52.322;10.232;2023-01-19T13:47:50;7.47;;;4.45;;
38089;SDS011;23904;52.322;10.232;2023-01-19T13:50:25;8.38;;;3.78;;
38089;SDS011;23904;52.322;10.232;2023-01-19T13:52:56;5.72;;;3.95;;
38089;SDS011;23904;52.322;10.232;2023-01-19T13:55:29;5.55;;;3.65;;
38089;SDS011;23904;52.322;10.232;2023-01-19T13:57:55;10.70;;;4.63;;
38089;SDS011;23904;52.322;10.232;2023-01-19T14:02:52;8.00;;;4.20;;
38089;SDS011;23904;52.322;10.232;2023-01-19T14:10:29;6.78;;;3.85;;
38089;SDS011;23904;52.322;10.232;2023-01-19T14:15:45;6.55;;;4.57;;
38089;SDS011;23904;52.322;10.232;2023-01-19T14:20:57;8.05;;;4.22;;
38089;SDS011;23904;52.322;10.232;2023-01-19T14:23:37;6.65;;;3.83;;
38089;SDS011;23904;52.322;10.232;2023-01-19T14:29:21;8.05;;;4.75;;
38089;SDS011;23904;52.322;10.232;2023-01-19T14:32:03;9.05;;;4.90;;
38089;SDS011;23904;52.322;10.232;2023-01-19T14:34:43;9.82;;;4.72;;
38089;SDS011;23904;52.322;10.232;2023-01-19T14:37:14;6.32;;;4.22;;
38089;SDS011;23904;52.322;10.232;2023-01-19T14:40:29;7.20;;;4.55;;
38089;SDS011;23904;52.322;10.232;2023-01-19T14:42:36;9.68;;;4.60;;
38089;SDS011;23904;52.322;10.232;2023-01-19T14:45:18;7.28;;;5.07;;
38089;SDS011;23904;52.322;10.232;2023-01-19T14:48:04;10.10;;;5.53;;
38089;SDS011;23904;52.322;10.232;2023-01-19T14:50:40;10.70;;;4.85;;
38089;SDS011;23904;52.322;10.232;2023-01-19T14:53:13;11.38;;;5.53;;
38089;SDS011;23904;52.322;10.232;2023-01-19T14:55:50;13.40;;;4.78;;
38089;SDS011;23904;52.322;10.232;2023-01-19T14:58:26;8.05;;;5.22;;
38089;SDS011;23904;52.322;10.232;2023-01-19T15:00:55;8.77;;;5.13;;
38089;SDS011;23904;52.322;10.232;2023-01-19T15:03:24;8.88;;;5.20;;
38089;SDS011;23904;52.322;10.232;2023-01-19T15:05:51;9.38;;;5.43;;
38089;SDS011;23904;52.322;10.232;2023-01-19T15:08:22;11.93;;;5.70;;
38089;SDS011;23904;52.322;10.232;2023-01-19T15:13:21;14.93;;;5.50;;
38089;SDS011;23904;52.322;10.232;2023-01-19T15:15:49;14.40;;;5.95;;
38089;SDS011;23904;52.322;10.232;2023-01-19T15:18:17;9.82;;;5.47;;
38089;SDS011;23904;52.322;10.232;2023-01-19T15:20:47;15.95;;;6.15;;
38089;SDS011;23904;52.322;10.232;2023-01-19T15:23:12;12.43;;;6.32;;
38089;SDS011;23904;52.322;10.232;2023-01-19T15:25:38;14.30;;;6.95;;
38089;SDS011;23904;52.322;10.232;2023-01-19T15:28:07;13.27;;;6.38;;
38089;SDS011;23904;52.322;10.232;2023-01-19T15:30:36;18.52;;;6.50;;
38089;SDS011;23904;52.322;10.232;2023-01-19T15:33:02;18.00;;;7.00;;
38089;SDS011;23904;52.322;10.232;2023-01-19T15:35:28;12.52;;;6.47;;
38089;SDS011;23904;52.322;10.232;2023-01-19T15:37:54;11.65;;;6.18;;
38089;SDS011;23904;52.322;10.232;2023-01-19T15:40:20;12.35;;;6.07;;
38089;SDS011;23904;52.322;10.232;2023-01-19T15:42:47;16.20;;;7.15;;
38089;SDS011;23904;52.322;10.232;2023-01-19T15:45:21;14.32;;;7.00;;
38089;SDS011;23904;52.322;10.232;2023-01-19T15:48:05;16.10;;;7.43;;
38089;SDS011;23904;52.322;10.232;2023-01-19T15:50:36;10.75;;;6.05;;
38089;SDS011;23904;52.322;10.232;2023-01-19T15:53:09;21.48;;;7.85;;
38089;SDS011;23904;52.322;10.232;2023-01-19T15:55:39;18.05;;;6.65;;
38089;SDS011;23904;52.322;10.232;2023-01-19T15:58:05;16.45;;;7.55;;
38089;SDS011;23904;52.322;10.232;2023-01-19T16:00:31;15.45;;;7.70;;